Jamestown, VA (23081)

3:59 AM EST on December 07, 2016 (GMT -0500)
Drummond's Field on the James | | Change Station

Elev 49 ft 37.24 °N, 76.79 °W | Updated 12 seconds ago

Overcast
Overcast
46.6 °F
Feels Like 47 °F
N
0.0
Wind Variable Wind from South
Gusts 0.0 mph

Today
High -- | Low -- °F
--% Chance of Precip.
Yesterday
High -- | Low -- °F
Precip. -- in
Pressure 29.88 in
Visibility 10.0 miles
Clouds Overcast 700 ft
Windchill 47 °F
Dew Point 46 °F
Humidity 98%
Rainfall 0.00 in
Snow Depth Not available.
7:07 AM 4:49 PM
Waxing Crescent, 50% visible
METAR KJGG 070835Z AUTO 34008KT 10SM OVC007 08/08 A2988 RMK AO1
Pressure 29.88 in
Visibility 10.0 miles
Clouds Overcast 700 ft
Windchill 47 °F
Dew Point 46 °F
Humidity 98%
Rainfall 0.00 in
Snow Depth Not available.
7:07 AM 4:49 PM
Waxing Crescent, 50% visible
METAR KJGG 070835Z AUTO 34008KT 10SM OVC007 08/08 A2988 RMK AO1

10-Day Weather Forecast

Almanac

Astronomy

Dec. 07, 2016 Rise Set
Actual Time
Civil Twilight
Nautical Twilight
Astronomical Twilight
Moon
Length of Visible Light
Length of Day
Tomorrow will be .
, % of the Moon is Illuminated

Today's Extremes

State Highs State Lows

Community

WunderPhotos

Upload Photos

1,956,104 photos uploaded!

WunderBlog® & News

Nearby

Air Quality

  Air Quality AQ Index Pollutant
Not available.

Snow Depth

Station Depth Elevation

Earthquake Activity

City Distance Mag. Time & Date
Minimum magnitude displayed is 2.5.

Coastal Water Temperatures

Place Temperature

Stations

Nearby Weather Stations

Station Location Temp. Windchill Dew Point Humidity Wind Precip. Elev Updated Type
                   

Watches & Warnings

There are currently no watches in effect.